Time;durP1;ratioP1;P1;durP2;ratioP2;P2;SDS_P1;SDS_P2;PMS_P1;PMS_P2;Temp;Humidity;BMP_temperature;BMP_pressure;BME280_temperature;BME280_humidity;BME280_pressure;Samples;Min_cycle;Max_cycle;Signal;HPM_P1;HPM_P2
2022/11/01 00:01:36;;;;;;;;;;;;;;;;;;5051464;28;1408;-76
2022/11/01 00:04:02;;;;;;;;;;;;;;;;;;5052645;28;1048;-76
2022/11/01 00:06:29;;;;;;;;;;;;;;;;;;5034965;28;1153;-76
2022/11/01 00:08:55;;;;;;;;;;;;;;;;;;5052869;28;885;-75
2022/11/01 00:11:21;;;;;;;;;;;;;;;;;;5051742;28;1352;-76
2022/11/01 00:13:48;;;;;;;;;;;;;;;;;;5052055;28;1910;-76
2022/11/01 00:16:16;;;;;;;;;;;;;;;;;;5052285;28;916;-75
2022/11/01 00:18:42;;;;;;;;;;;;;;;;;;5034429;28;1138;-76
2022/11/01 00:21:09;;;;;;;;;;;;;;;;;;5051838;28;1381;-76
2022/11/01 00:23:35;;;;;;;;;;;;;;;;;;5033623;28;1131;-76
2022/11/01 00:26:02;;;;;;;;;;;;;;;;;;5052245;28;917;-75
2022/11/01 00:28:28;;;;;;;;;;;;;;;;;;5051556;28;1056;-76
2022/11/01 00:30:54;;;;;;;;;;;;;;;;;;5051741;28;1410;-76
2022/11/01 00:33:22;;;;;;;;;;;;;;;;;;5051262;28;1059;-76
2022/11/01 00:35:48;;;;;;;;;;;;;;;;;;5051957;28;1981;-76
2022/11/01 00:38:15;;;;;;;;;;;;;;;;;;5051821;28;1324;-75
2022/11/01 00:40:41;;;;;;;;;;;;;;;;;;5036629;28;1335;-75
2022/11/01 00:43:08;;;;;;;;;;;;;;;;;;5037394;28;1116;-77
2022/11/01 00:45:34;;;;;;;;;;;;;;;;;;5055703;28;948;-77
2022/11/01 00:48:00;;;;;;;;;;;;;;;;;;5055439;28;1044;-76
2022/11/01 00:50:27;;;;;;;;;;;;;;;;;;5055398;28;1346;-75
2022/11/01 00:52:54;;;;;;;;;;;;;;;;;;5056736;28;1471;-76
2022/11/01 00:55:20;;;;;;;;;;;;;;;;;;5038136;28;1910;-76
2022/11/01 00:57:46;;;;;;;;;;;;;;;;;;5055583;28;1111;-76
2022/11/01 01:00:13;;;;;;;;;;;;;;;;;;5037552;28;1136;-77
2022/11/01 01:02:39;;;;;;;;;;;;;;;;;;5054773;28;1426;-76
2022/11/01 01:05:06;;;;;;;;;;;;;;;;;;5055185;28;1048;-75
2022/11/01 01:07:33;;;;;;;;;;;;;;;;;;5055248;28;929;-75
2022/11/01 01:10:00;;;;;;;;;;;;;;;;;;5055191;28;1096;-75
2022/11/01 01:12:26;;;;;;;;;;;;;;;;;;5036581;28;1358;-74
2022/11/01 01:14:52;;;;;;;;;;;;;;;;;;5037563;28;1981;-76
2022/11/01 01:17:18;;;;;;;;;;;;;;;;;;5055101;28;763;-75
2022/11/01 01:19:44;;;;;;;;;;;;;;;;;;5054923;28;1253;-76
2022/11/01 01:22:11;;;;;;;;;;;;;;;;;;5036025;28;1412;-76
2022/11/01 01:24:44;;;;;;;;;;;;;;;;;;5055293;28;1397;-75
2022/11/01 01:27:10;;;;;;;;;;;;;;;;;;5037130;28;1215;-75
2022/11/01 01:29:40;;;;;;;;;;;;;;;;;;5054999;28;1060;-75
2022/11/01 01:32:06;;;;;;;;;;;;;;;;;;5054334;28;1276;-76
2022/11/01 01:34:32;;;;;;;;;;;;;;;;;;5054970;28;1910;-74
2022/11/01 01:36:59;;;;;;;;;;;;;;;;;;5054912;28;806;-75
2022/11/01 01:39:25;;;;;;;;;;;;;;;;;;5036420;28;1409;-75
2022/11/01 01:41:55;;;;;;;;;;;;;;;;;;5053852;28;1389;-75
2022/11/01 01:44:40;;;;;;;;;;;;;;;;;;5054535;28;1061;-75
2022/11/01 01:47:06;;;;;;;;;;;;;;;;;;5054453;28;1104;-76
2022/11/01 01:49:32;;;;;;;;;;;;;;;;;;5054301;28;866;-75
2022/11/01 01:51:59;;;;;;;;;;;;;;;;;;5035411;28;1389;-75
2022/11/01 01:54:25;;;;;;;;;;;;;;;;;;5054304;28;1914;-75
2022/11/01 01:56:52;;;;;;;;;;;;;;;;;;5054594;28;1068;-75
2022/11/01 01:59:18;;;;;;;;;;;;;;;;;;5036154;28;1337;-75
2022/11/01 02:01:45;;;;;;;;;;;;;;;;;;5035672;28;1404;-75
2022/11/01 02:04:11;;;;;;;;;;;;;;;;;;5054483;28;980;-75
2022/11/01 02:06:38;;;;;;;;;;;;;;;;;;5036282;28;1230;-78
2022/11/01 02:09:04;;;;;;;;;;;;;;;;;;5036165;28;1151;-75
2022/11/01 02:11:30;;;;;;;;;;;;;;;;;;5053567;28;1365;-75
2022/11/01 02:13:58;;;;;;;;;;;;;;;;;;5054215;28;1075;-76
2022/11/01 02:16:44;;;;;;;;;;;;;;;;;;5053628;28;1914;-75
2022/11/01 02:19:17;;;;;;;;;;;;;;;;;;5053787;28;830;-76
2022/11/01 02:21:49;;;;;;;;;;;;;;;;;;5053510;28;1298;-76
2022/11/01 02:24:34;;;;;;;;;;;;;;;;;;5053691;28;763;-76
2022/11/01 02:27:18;;;;;;;;;;;;;;;;;;5054129;28;1120;-75
2022/11/01 02:29:55;;;;;;;;;;;;;;;;;;5035374;28;1407;-76
2022/11/01 02:32:24;;;;;;;;;;;;;;;;;;5035209;28;1339;-76
2022/11/01 02:34:51;;;;;;;;;;;;;;;;;;5053499;28;1926;-76
2022/11/01 02:37:19;;;;;;;;;;;;;;;;;;5053388;28;715;-75
2022/11/01 02:39:47;;;;;;;;;;;;;;;;;;5035726;28;1093;-75
2022/11/01 02:42:14;;;;;;;;;;;;;;;;;;5052685;28;1292;-75
2022/11/01 02:44:41;;;;;;;;;;;;;;;;;;5053334;28;1072;-75
2022/11/01 02:47:06;;;;;;;;;;;;;;;;;;5035617;28;1375;-75
2022/11/01 02:49:35;;;;;;;;;;;;;;;;;;5035650;28;1183;-76
2022/11/01 02:52:01;;;;;;;;;;;;;;;;;;5034626;28;1325;-76
2022/11/01 02:54:28;;;;;;;;;;;;;;;;;;5052670;28;1967;-75
2022/11/01 02:56:54;;;;;;;;;;;;;;;;;;5053176;28;906;-74
2022/11/01 02:59:23;;;;;;;;;;;;;;;;;;5035348;28;1261;-75
2022/11/01 03:01:51;;;;;;;;;;;;;;;;;;5086904;22;4221;-77
2022/11/01 03:04:17;;;;;;;;;;;;;;;;;;5074954;28;1248;-76
2022/11/01 03:06:45;;;;;;;;;;;;;;;;;;5093844;28;1068;-76
2022/11/01 03:09:12;;;;;;;;;;;;;;;;;;5075832;28;1198;-77
2022/11/01 03:11:41;;;;;;;;;;;;;;;;;;5072066;28;1320;-77
2022/11/01 03:14:10;;;;;;;;;;;;;;;;;;5072958;28;1068;-77
2022/11/01 03:16:37;;;;;;;;;;;;;;;;;;5073302;28;1973;-77
2022/11/01 03:19:07;;;;;;;;;;;;;;;;;;5073239;28;1075;-77
2022/11/01 03:21:34;;;;;;;;;;;;;;;;;;5054413;28;1250;-78
2022/11/01 03:24:03;;;;;;;;;;;;;;;;;;5054639;28;1246;-76
2022/11/01 03:26:29;;;;;;;;;;;;;;;;;;5072980;28;1044;-76
2022/11/01 03:28:56;;;;;;;;;;;;;;;;;;5073069;28;1115;-77
2022/11/01 03:31:23;;;;;;;;;;;;;;;;;;5071907;28;1469;-77
2022/11/01 03:33:50;;;;;;;;;;;;;;;;;;5072671;28;1059;-76
2022/11/01 03:36:17;;;;;;;;;;;;;;;;;;5072920;28;1972;-78
2022/11/01 03:38:44;;;;;;;;;;;;;;;;;;5054856;28;1221;-76
2022/11/01 03:41:12;;;;;;;;;;;;;;;;;;5055231;28;1283;-76
2022/11/01 03:43:39;;;;;;;;;;;;;;;;;;5072162;28;1344;-75
2022/11/01 03:46:05;;;;;;;;;;;;;;;;;;5054992;28;1157;-79
2022/11/01 03:48:31;;;;;;;;;;;;;;;;;;5072761;28;1127;-79
2022/11/01 03:50:57;;;;;;;;;;;;;;;;;;5072326;28;993;-77
2022/11/01 03:53:24;;;;;;;;;;;;;;;;;;5053845;28;1329;-78
2022/11/01 03:55:50;;;;;;;;;;;;;;;;;;5054359;28;1993;-77
2022/11/01 03:58:18;;;;;;;;;;;;;;;;;;5072751;28;1051;-78
2022/11/01 04:00:44;;;;;;;;;;;;;;;;;;5073762;28;1071;-77
2022/11/01 04:03:11;;;;;;;;;;;;;;;;;;5071744;28;1403;-77
2022/11/01 04:05:37;;;;;;;;;;;;;;;;;;5072461;28;1059;-76
2022/11/01 04:08:04;;;;;;;;;;;;;;;;;;5072248;28;936;-76
2022/11/01 04:10:31;;;;;;;;;;;;;;;;;;5072584;28;1051;-76
2022/11/01 04:12:57;;;;;;;;;;;;;;;;;;5071556;28;1375;-75
2022/11/01 04:20:55;;;;;;;;;;;;;;;;;;5076766;28;1427;-77
2022/11/01 04:23:21;;;;;;;;;;;;;;;;;;5079955;28;1496;-77
2022/11/01 04:25:47;;;;;;;;;;;;;;;;;;5075455;28;1441;-77
2022/11/01 04:28:14;;;;;;;;;;;;;;;;;;5070729;28;1377;-77
2022/11/01 04:30:42;;;;;;;;;;;;;;;;;;5058629;28;1624;-78
2022/11/01 04:33:08;;;;;;;;;;;;;;;;;;5074533;28;1356;-76
2022/11/01 04:35:35;;;;;;;;;;;;;;;;;;5070521;28;1902;-74
2022/11/01 04:38:01;;;;;;;;;;;;;;;;;;5042935;28;1597;-78
2022/11/01 04:40:27;;;;;;;;;;;;;;;;;;5074866;28;1299;-77
2022/11/01 04:42:54;;;;;;;;;;;;;;;;;;5074482;28;1531;-78
2022/11/01 04:45:20;;;;;;;;;;;;;;;;;;5058815;28;1344;-77
2022/11/01 04:47:51;;;;;;;;;;;;;;;;;;5072473;28;1119;-75
2022/11/01 04:50:17;;;;;;;;;;;;;;;;;;5076933;28;1087;-77
2022/11/01 04:52:43;;;;;;;;;;;;;;;;;;5073884;28;1566;-78
2022/11/01 04:55:10;;;;;;;;;;;;;;;;;;5065746;28;1963;-77
2022/11/01 04:57:37;;;;;;;;;;;;;;;;;;5075341;28;1429;-75
2022/11/01 05:00:04;;;;;;;;;;;;;;;;;;5067039;28;1435;-76
2022/11/01 05:02:30;;;;;;;;;;;;;;;;;;5074488;28;1475;-76
2022/11/01 05:04:58;;;;;;;;;;;;;;;;;;5060048;28;1498;-77
2022/11/01 05:07:24;;;;;;;;;;;;;;;;;;5075977;28;927;-76
2022/11/01 05:09:50;;;;;;;;;;;;;;;;;;5057561;28;1175;-76
2022/11/01 05:12:17;;;;;;;;;;;;;;;;;;5074421;28;1321;-77
2022/11/01 05:14:43;;;;;;;;;;;;;;;;;;5075661;28;945;-76
2022/11/01 05:17:10;;;;;;;;;;;;;;;;;;5075353;28;1910;-77
2022/11/01 05:19:36;;;;;;;;;;;;;;;;;;5075203;28;1044;-79
2022/11/01 05:22:04;;;;;;;;;;;;;;;;;;5073788;28;1339;-77
2022/11/01 05:24:30;;;;;;;;;;;;;;;;;;5074997;28;1047;-76
2022/11/01 05:26:58;;;;;;;;;;;;;;;;;;5056877;28;1256;-79
2022/11/01 05:29:24;;;;;;;;;;;;;;;;;;5075269;28;913;-76
2022/11/01 05:31:50;;;;;;;;;;;;;;;;;;5074210;28;1320;-77
2022/11/01 05:34:17;;;;;;;;;;;;;;;;;;5074942;28;910;-76
2022/11/01 05:36:43;;;;;;;;;;;;;;;;;;5056804;28;1982;-77
2022/11/01 05:39:10;;;;;;;;;;;;;;;;;;5074140;28;1194;-78
2022/11/01 05:41:37;;;;;;;;;;;;;;;;;;5074116;28;1321;-79
2022/11/01 05:44:03;;;;;;;;;;;;;;;;;;5056991;28;1267;-78
2022/11/01 05:46:29;;;;;;;;;;;;;;;;;;5075040;28;925;-76
2022/11/01 05:48:55;;;;;;;;;;;;;;;;;;5073047;28;1183;-79
2022/11/01 05:51:22;;;;;;;;;;;;;;;;;;5075314;28;1438;-77
2022/11/01 05:53:48;;;;;;;;;;;;;;;;;;5088657;28;1302;-78
2022/11/01 05:56:16;;;;;;;;;;;;;;;;;;5094693;28;1909;-78
2022/11/01 05:58:43;;;;;;;;;;;;;;;;;;5085643;28;1318;-77
2022/11/01 06:01:09;;;;;;;;;;;;;;;;;;5084447;28;1322;-78
2022/11/01 06:03:37;;;;;;;;;;;;;;;;;;5082329;28;1478;-77
2022/11/01 06:06:03;;;;;;;;;;;;;;;;;;5083212;28;1247;-75
2022/11/01 06:08:30;;;;;;;;;;;;;;;;;;5083172;28;1417;-77
2022/11/01 06:11:01;;;;;;;;;;;;;;;;;;5074461;28;924;-77
2022/11/01 06:13:29;;;;;;;;;;;;;;;;;;5073485;28;1392;-77
2022/11/01 06:15:57;;;;;;;;;;;;;;;;;;5074063;28;1981;-78
2022/11/01 06:18:23;;;;;;;;;;;;;;;;;;5073886;28;822;-76
2022/11/01 06:20:49;;;;;;;;;;;;;;;;;;5056089;28;1151;-77
2022/11/01 06:23:15;;;;;;;;;;;;;;;;;;5073434;28;1304;-77
2022/11/01 06:25:42;;;;;;;;;;;;;;;;;;5073664;28;795;-77
2022/11/01 06:28:08;;;;;;;;;;;;;;;;;;5073453;28;1089;-77
2022/11/01 06:30:37;;;;;;;;;;;;;;;;;;5073660;28;845;-77
2022/11/01 06:33:05;;;;;;;;;;;;;;;;;;5072916;28;1417;-78
2022/11/01 06:35:31;;;;;;;;;;;;;;;;;;5074473;28;1960;-78
2022/11/01 06:38:01;;;;;;;;;;;;;;;;;;5073114;28;1048;-78
2022/11/01 06:40:27;;;;;;;;;;;;;;;;;;5072417;28;929;-77
2022/11/01 06:42:53;;;;;;;;;;;;;;;;;;5070035;28;1389;-78
2022/11/01 06:45:19;;;;;;;;;;;;;;;;;;5070396;28;1382;-77
2022/11/01 06:47:47;;;;;;;;;;;;;;;;;;5070229;28;1514;-76
2022/11/01 06:50:13;;;;;;;;;;;;;;;;;;5070425;28;1063;-77
2022/11/01 06:52:40;;;;;;;;;;;;;;;;;;5052333;28;1290;-77
2022/11/01 06:55:06;;;;;;;;;;;;;;;;;;5071999;28;865;-77
2022/11/01 06:57:32;;;;;;;;;;;;;;;;;;5054116;28;1926;-76
2022/11/01 06:59:58;;;;;;;;;;;;;;;;;;5071646;28;933;-76
2022/11/01 07:02:25;;;;;;;;;;;;;;;;;;5070629;28;1447;-76
2022/11/01 07:04:53;;;;;;;;;;;;;;;;;;5071454;28;782;-75
2022/11/01 07:07:19;;;;;;;;;;;;;;;;;;5071557;28;1097;-77
2022/11/01 07:09:45;;;;;;;;;;;;;;;;;;5071303;28;1503;-77
2022/11/01 07:12:11;;;;;;;;;;;;;;;;;;5070709;28;1331;-77
2022/11/01 07:14:37;;;;;;;;;;;;;;;;;;5071499;28;1056;-77
2022/11/01 07:17:04;;;;;;;;;;;;;;;;;;5053991;28;1973;-77
2022/11/01 07:19:30;;;;;;;;;;;;;;;;;;5071679;28;1110;-77
2022/11/01 07:21:57;;;;;;;;;;;;;;;;;;5070100;28;1427;-76
2022/11/01 07:24:23;;;;;;;;;;;;;;;;;;5071500;28;1060;-78
2022/11/01 07:26:50;;;;;;;;;;;;;;;;;;5071613;28;1544;-78
2022/11/01 07:29:16;;;;;;;;;;;;;;;;;;5071362;28;956;-78
2022/11/01 07:31:42;;;;;;;;;;;;;;;;;;5070494;28;1339;-76
2022/11/01 07:34:08;;;;;;;;;;;;;;;;;;5071380;28;821;-78
2022/11/01 07:36:35;;;;;;;;;;;;;;;;;;5053460;28;1914;-79
2022/11/01 07:39:02;;;;;;;;;;;;;;;;;;5052487;28;1275;-78
2022/11/01 07:41:28;;;;;;;;;;;;;;;;;;5052504;28;1337;-75
2022/11/01 07:43:55;;;;;;;;;;;;;;;;;;5071144;28;901;-77
2022/11/01 07:46:21;;;;;;;;;;;;;;;;;;5071198;28;1258;-76
2022/11/01 07:48:49;;;;;;;;;;;;;;;;;;5052854;28;1345;-80
2022/11/01 07:51:16;;;;;;;;;;;;;;;;;;5052478;28;1226;-81
2022/11/01 07:53:42;;;;;;;;;;;;;;;;;;5070930;28;1362;-77
2022/11/01 07:56:09;;;;;;;;;;;;;;;;;;5071146;28;1971;-79
2022/11/01 07:58:36;;;;;;;;;;;;;;;;;;5070845;28;1036;-75
2022/11/01 08:01:02;;;;;;;;;;;;;;;;;;5071068;28;802;-78
2022/11/01 08:03:29;;;;;;;;;;;;;;;;;;5070274;28;1356;-77
2022/11/01 08:05:56;;;;;;;;;;;;;;;;;;5071031;28;1008;-77
2022/11/01 08:08:22;;;;;;;;;;;;;;;;;;5071157;28;973;-77
2022/11/01 08:10:48;;;;;;;;;;;;;;;;;;5070728;28;1118;-76
2022/11/01 08:13:16;;;;;;;;;;;;;;;;;;5069930;28;1342;-76
2022/11/01 08:15:43;;;;;;;;;;;;;;;;;;5071667;28;920;-77
2022/11/01 08:18:09;;;;;;;;;;;;;;;;;;5071630;28;1914;-76
2022/11/01 08:20:35;;;;;;;;;;;;;;;;;;5070500;28;758;-77
2022/11/01 08:23:01;;;;;;;;;;;;;;;;;;5051936;28;1366;-77
2022/11/01 08:25:28;;;;;;;;;;;;;;;;;;5053582;28;1263;-74
2022/11/01 08:27:54;;;;;;;;;;;;;;;;;;5070699;28;979;-77
2022/11/01 08:30:21;;;;;;;;;;;;;;;;;;5070421;28;1130;-77
2022/11/01 08:32:48;;;;;;;;;;;;;;;;;;5069928;28;1318;-76
2022/11/01 08:35:14;;;;;;;;;;;;;;;;;;5070901;28;783;-77
2022/11/01 08:37:47;;;;;;;;;;;;;;;;;;5070325;28;1914;-74
2022/11/01 08:40:13;;;;;;;;;;;;;;;;;;5070177;28;1047;-80
2022/11/01 08:42:39;;;;;;;;;;;;;;;;;;5070229;28;1327;-79
2022/11/01 08:45:06;;;;;;;;;;;;;;;;;;5072127;28;1499;-78
2022/11/01 08:47:34;;;;;;;;;;;;;;;;;;5054188;28;1305;-78
2022/11/01 08:50:00;;;;;;;;;;;;;;;;;;5054105;28;1286;-76
2022/11/01 08:52:26;;;;;;;;;;;;;;;;;;5071176;28;1388;-77
2022/11/01 08:54:53;;;;;;;;;;;;;;;;;;5072000;28;1056;-78
2022/11/01 08:57:19;;;;;;;;;;;;;;;;;;5071581;28;1906;-78
2022/11/01 08:59:45;;;;;;;;;;;;;;;;;;5053676;28;1135;-78
2022/11/01 09:04:50;;;;;;;;;;;;;;;;;;5068476;28;2143;-73
2022/11/01 09:07:17;;;;;;;;;;;;;;;;;;5074100;28;1312;-75
2022/11/01 09:09:44;;;;;;;;;;;;;;;;;;5075023;28;945;-76
2022/11/01 09:12:11;;;;;;;;;;;;;;;;;;5074662;28;1258;-76
2022/11/01 09:14:37;;;;;;;;;;;;;;;;;;5074960;28;1301;-75
2022/11/01 09:17:03;;;;;;;;;;;;;;;;;;5075046;28;1914;-75
2022/11/01 09:19:29;;;;;;;;;;;;;;;;;;5057948;28;1447;-75
2022/11/01 09:21:57;;;;;;;;;;;;;;;;;;5051535;28;874;-75
2022/11/01 09:24:23;;;;;;;;;;;;;;;;;;5053705;28;1289;-76
2022/11/01 09:26:49;;;;;;;;;;;;;;;;;;5054427;28;1055;-75
2022/11/01 09:29:17;;;;;;;;;;;;;;;;;;5035635;28;1346;-76
2022/11/01 09:31:44;;;;;;;;;;;;;;;;;;5034321;28;1137;-76
2022/11/01 09:34:11;;;;;;;;;;;;;;;;;;5053037;28;1408;-76
2022/11/01 09:36:38;;;;;;;;;;;;;;;;;;5055802;28;1961;-77
2022/11/01 09:39:05;;;;;;;;;;;;;;;;;;5059912;28;933;-76
2022/11/01 09:41:32;;;;;;;;;;;;;;;;;;5042579;28;1112;-75
2022/11/01 09:43:59;;;;;;;;;;;;;;;;;;5038673;28;1338;-76
2022/11/01 09:46:26;;;;;;;;;;;;;;;;;;5054917;28;1127;-75
2022/11/01 09:48:53;;;;;;;;;;;;;;;;;;5054337;28;1052;-76
2022/11/01 09:51:20;;;;;;;;;;;;;;;;;;5053823;28;886;-73
2022/11/01 09:53:46;;;;;;;;;;;;;;;;;;5036615;28;1350;-75
2022/11/01 09:56:14;;;;;;;;;;;;;;;;;;5054679;28;1122;-75
2022/11/01 09:58:43;;;;;;;;;;;;;;;;;;5036318;28;1983;-75
2022/11/01 10:01:13;;;;;;;;;;;;;;;;;;5054657;28;1150;-75
2022/11/01 10:03:43;;;;;;;;;;;;;;;;;;5035783;28;1306;-76
2022/11/01 10:06:10;;;;;;;;;;;;;;;;;;5054664;28;1074;-76
2022/11/01 10:08:38;;;;;;;;;;;;;;;;;;5053839;28;893;-76
2022/11/01 10:11:23;;;;;;;;;;;;;;;;;;5053875;28;1040;-76
2022/11/01 10:13:50;;;;;;;;;;;;;;;;;;5054090;28;1309;-76
2022/11/01 10:16:19;;;;;;;;;;;;;;;;;;5054561;28;759;-77
2022/11/01 10:18:46;;;;;;;;;;;;;;;;;;5035896;28;1918;-75
2022/11/01 10:21:13;;;;;;;;;;;;;;;;;;5054184;28;1098;-74
2022/11/01 10:23:41;;;;;;;;;;;;;;;;;;5053454;28;1376;-73
2022/11/01 10:26:08;;;;;;;;;;;;;;;;;;5053786;28;783;-77
2022/11/01 10:28:38;;;;;;;;;;;;;;;;;;5053528;28;1072;-76
2022/11/01 10:31:05;;;;;;;;;;;;;;;;;;5053945;28;759;-77
2022/11/01 10:33:31;;;;;;;;;;;;;;;;;;5053295;28;1407;-76
2022/11/01 10:35:58;;;;;;;;;;;;;;;;;;5053856;28;1028;-76
2022/11/01 10:38:28;;;;;;;;;;;;;;;;;;5035605;28;1980;-76
2022/11/01 10:40:55;;;;;;;;;;;;;;;;;;5053905;28;1063;-76
2022/11/01 10:43:21;;;;;;;;;;;;;;;;;;5032045;28;1324;-76
2022/11/01 10:45:49;;;;;;;;;;;;;;;;;;5035524;28;1101;-76
2022/11/01 10:48:16;;;;;;;;;;;;;;;;;;5053423;28;944;-76
2022/11/01 10:50:43;;;;;;;;;;;;;;;;;;5053559;28;1068;-76
2022/11/01 10:53:10;;;;;;;;;;;;;;;;;;5034816;28;1367;-75
2022/11/01 10:55:38;;;;;;;;;;;;;;;;;;5053659;28;795;-76
2022/11/01 10:58:04;;;;;;;;;;;;;;;;;;5053223;28;1977;-77
2022/11/01 11:00:31;;;;;;;;;;;;;;;;;;5053289;28;1075;-76
2022/11/01 11:02:59;;;;;;;;;;;;;;;;;;5052426;28;1300;-76
2022/11/01 11:05:26;;;;;;;;;;;;;;;;;;5053329;28;723;-74
2022/11/01 11:07:52;;;;;;;;;;;;;;;;;;5052923;28;1279;-75
2022/11/01 11:10:19;;;;;;;;;;;;;;;;;;5053315;28;823;-73
2022/11/01 11:12:46;;;;;;;;;;;;;;;;;;5052184;28;1328;-75
2022/11/01 11:15:15;;;;;;;;;;;;;;;;;;5035303;28;1291;-76
2022/11/01 11:17:42;;;;;;;;;;;;;;;;;;5052867;28;1967;-76
2022/11/01 11:20:10;;;;;;;;;;;;;;;;;;5053042;28;1389;-76
2022/11/01 11:22:38;;;;;;;;;;;;;;;;;;5035975;28;1472;-76
2022/11/01 11:25:05;;;;;;;;;;;;;;;;;;5052474;28;1067;-76
2022/11/01 11:27:32;;;;;;;;;;;;;;;;;;5053159;28;1063;-77
2022/11/01 11:29:59;;;;;;;;;;;;;;;;;;5053516;28;1214;-77
2022/11/01 11:32:26;;;;;;;;;;;;;;;;;;5052426;28;1299;-76
2022/11/01 11:34:53;;;;;;;;;;;;;;;;;;5052459;28;1044;-75
2022/11/01 11:37:24;;;;;;;;;;;;;;;;;;5052806;28;1927;-77
2022/11/01 11:40:00;;;;;;;;;;;;;;;;;;5052499;28;940;-77
2022/11/01 11:42:29;;;;;;;;;;;;;;;;;;5051906;28;1556;-76
2022/11/01 11:44:55;;;;;;;;;;;;;;;;;;5052298;28;1056;-76
2022/11/01 11:47:23;;;;;;;;;;;;;;;;;;5052702;28;945;-76
2022/11/01 11:49:52;;;;;;;;;;;;;;;;;;5052610;28;1086;-76
2022/11/01 11:52:19;;;;;;;;;;;;;;;;;;5051913;28;1060;-77
2022/11/01 11:54:46;;;;;;;;;;;;;;;;;;5052347;28;1312;-76
2022/11/01 11:57:15;;;;;;;;;;;;;;;;;;5034534;28;1960;-76
2022/11/01 11:59:41;;;;;;;;;;;;;;;;;;5052347;28;1091;-76
2022/11/01 12:02:13;;;;;;;;;;;;;;;;;;5051706;28;1048;-76
2022/11/01 12:04:39;;;;;;;;;;;;;;;;;;5052130;28;1419;-77
2022/11/01 12:07:10;;;;;;;;;;;;;;;;;;5034483;28;1514;-76
2022/11/01 12:09:38;;;;;;;;;;;;;;;;;;5052051;28;1068;-77
2022/11/01 12:12:07;;;;;;;;;;;;;;;;;;5051110;28;751;-76
2022/11/01 12:14:34;;;;;;;;;;;;;;;;;;5051830;28;1308;-76
2022/11/01 12:17:00;;;;;;;;;;;;;;;;;;5052269;28;901;-77
2022/11/01 12:19:27;;;;;;;;;;;;;;;;;;5052098;28;1906;-76
2022/11/01 12:21:53;;;;;;;;;;;;;;;;;;5033736;28;1251;-77
2022/11/01 12:24:21;;;;;;;;;;;;;;;;;;5052355;28;1364;-77
2022/11/01 12:26:48;;;;;;;;;;;;;;;;;;5051724;28;1410;-77
2022/11/01 12:29:18;;;;;;;;;;;;;;;;;;5052348;28;1134;-77
2022/11/01 12:31:44;;;;;;;;;;;;;;;;;;5051378;28;921;-77
2022/11/01 12:34:12;;;;;;;;;;;;;;;;;;5034388;28;1313;-76
2022/11/01 12:36:41;;;;;;;;;;;;;;;;;;5055997;28;877;-76
2022/11/01 12:39:11;;;;;;;;;;;;;;;;;;5038096;28;1977;-78
2022/11/01 12:41:38;;;;;;;;;;;;;;;;;;5055354;28;1084;-76
2022/11/01 12:44:06;;;;;;;;;;;;;;;;;;5038000;28;1318;-77
2022/11/01 12:46:35;;;;;;;;;;;;;;;;;;5057712;28;1040;-75
2022/11/01 12:49:02;;;;;;;;;;;;;;;;;;5057267;28;1110;-76
2022/11/01 12:51:29;;;;;;;;;;;;;;;;;;5055560;28;921;-76
2022/11/01 12:53:58;;;;;;;;;;;;;;;;;;5055640;28;1466;-75
2022/11/01 12:56:24;;;;;;;;;;;;;;;;;;5055674;28;1004;-75
2022/11/01 12:58:51;;;;;;;;;;;;;;;;;;5055746;28;1914;-75
2022/11/01 13:01:22;;;;;;;;;;;;;;;;;;5055216;28;1115;-76
2022/11/01 13:03:52;;;;;;;;;;;;;;;;;;5055061;28;1485;-75
2022/11/01 13:06:27;;;;;;;;;;;;;;;;;;5055192;28;851;-76
2022/11/01 13:08:55;;;;;;;;;;;;;;;;;;5037781;28;949;-75
2022/11/01 13:11:23;;;;;;;;;;;;;;;;;;5036935;28;1434;-76
2022/11/01 13:13:50;;;;;;;;;;;;;;;;;;5037231;28;1479;-75
2022/11/01 13:16:17;;;;;;;;;;;;;;;;;;5052881;28;1012;-72
2022/11/01 13:18:44;;;;;;;;;;;;;;;;;;5053288;28;1906;-75
2022/11/01 13:21:13;;;;;;;;;;;;;;;;;;5054361;28;766;-75
2022/11/01 13:23:41;;;;;;;;;;;;;;;;;;4991466;28;1306;-75
2022/11/01 13:26:10;;;;;;;;;;;;;;;;;;4990426;28;925;-75
2022/11/01 13:28:51;;;;;;;;;;;;;;;;;;4983279;28;897;-75
2022/11/01 13:31:22;;;;;;;;;;;;;;;;;;4987283;28;905;-73
2022/11/01 13:33:49;;;;;;;;;;;;;;;;;;4988059;28;1270;-74
2022/11/01 13:36:18;;;;;;;;;;;;;;;;;;4990096;28;870;-74
2022/11/01 13:38:47;;;;;;;;;;;;;;;;;;4989156;28;1941;-76
2022/11/01 13:41:18;;;;;;;;;;;;;;;;;;4994424;28;972;-74
2022/11/01 13:43:46;;;;;;;;;;;;;;;;;;4995758;28;1373;-75
2022/11/01 13:46:17;;;;;;;;;;;;;;;;;;4986191;28;915;-74
2022/11/01 13:48:47;;;;;;;;;;;;;;;;;;4988307;28;918;-73
2022/11/01 13:51:27;;;;;;;;;;;;;;;;;;4992529;28;945;-74
2022/11/01 13:53:54;;;;;;;;;;;;;;;;;;4989822;28;1325;-73
2022/11/01 13:56:21;;;;;;;;;;;;;;;;;;4970787;28;1152;-74
2022/11/01 13:58:48;;;;;;;;;;;;;;;;;;4990828;28;1942;-73
2022/11/01 14:01:31;;;;;;;;;;;;;;;;;;5010106;28;924;-73
2022/11/01 14:04:16;;;;;;;;;;;;;;;;;;5001359;28;1325;-75
2022/11/01 14:06:50;;;;;;;;;;;;;;;;;;5006392;28;940;-73
2022/11/01 14:09:28;;;;;;;;;;;;;;;;;;5008005;28;987;-74
2022/11/01 14:11:55;;;;;;;;;;;;;;;;;;5006235;28;1027;-74
2022/11/01 14:14:41;;;;;;;;;;;;;;;;;;5009335;28;1428;-74
2022/11/01 14:17:27;;;;;;;;;;;;;;;;;;5008592;28;928;-75
2022/11/01 14:20:09;;;;;;;;;;;;;;;;;;5007659;28;2006;-73
2022/11/01 14:22:38;;;;;;;;;;;;;;;;;;4998058;28;1364;-74
2022/11/01 14:25:28;;;;;;;;;;;;;;;;;;4988290;28;1111;-74
2022/11/01 14:28:19;;;;;;;;;;;;;;;;;;5007530;28;837;-75
2022/11/01 14:30:48;;;;;;;;;;;;;;;;;;5000735;28;928;-74
2022/11/01 14:33:15;;;;;;;;;;;;;;;;;;5001096;28;1345;-75
2022/11/01 14:35:44;;;;;;;;;;;;;;;;;;5014239;28;870;-75
2022/11/01 14:38:12;;;;;;;;;;;;;;;;;;5003791;28;1934;-75
2022/11/01 14:40:40;;;;;;;;;;;;;;;;;;5001749;28;897;-75
2022/11/01 14:43:10;;;;;;;;;;;;;;;;;;5008757;28;1298;-74
2022/11/01 14:45:38;;;;;;;;;;;;;;;;;;5003750;28;842;-73
2022/11/01 14:48:06;;;;;;;;;;;;;;;;;;5002935;28;924;-73
2022/11/01 14:50:35;;;;;;;;;;;;;;;;;;5003092;28;877;-73
2022/11/01 14:53:03;;;;;;;;;;;;;;;;;;5009269;28;1400;-73
2022/11/01 14:55:35;;;;;;;;;;;;;;;;;;5006199;28;794;-74
2022/11/01 14:58:08;;;;;;;;;;;;;;;;;;4995822;28;1031;-74
2022/11/01 15:00:35;;;;;;;;;;;;;;;;;;5009379;28;925;-73
2022/11/01 15:03:01;;;;;;;;;;;;;;;;;;5004906;28;1379;-75
2022/11/01 15:05:28;;;;;;;;;;;;;;;;;;5029661;22;3552;-80
2022/11/01 15:07:55;;;;;;;;;;;;;;;;;;4996061;28;1181;-78
2022/11/01 15:10:22;;;;;;;;;;;;;;;;;;5005781;28;1426;-80
2022/11/01 15:12:50;;;;;;;;;;;;;;;;;;5010764;28;835;-80
2022/11/01 15:15:20;;;;;;;;;;;;;;;;;;5005040;28;1384;-79
2022/11/01 15:17:51;;;;;;;;;;;;;;;;;;5000596;28;1155;-79
2022/11/01 15:20:17;;;;;;;;;;;;;;;;;;5023619;28;1937;-79
2022/11/01 15:22:44;;;;;;;;;;;;;;;;;;5021821;28;862;-80
2022/11/01 15:25:15;;;;;;;;;;;;;;;;;;4992241;28;1337;-80
2022/11/01 15:27:42;;;;;;;;;;;;;;;;;;5020050;28;845;-81
2022/11/01 15:30:18;;;;;;;;;;;;;;;;;;5026845;28;944;-80
2022/11/01 15:32:45;;;;;;;;;;;;;;;;;;5020044;28;976;-80
2022/11/01 15:35:19;;;;;;;;;;;;;;;;;;4999456;28;1360;-80
2022/11/01 15:37:48;;;;;;;;;;;;;;;;;;5002090;28;1079;-79
2022/11/01 15:40:20;;;;;;;;;;;;;;;;;;5026925;28;1967;-80
2022/11/01 15:42:55;;;;;;;;;;;;;;;;;;4994723;28;1366;-79
2022/11/01 15:45:26;;;;;;;;;;;;;;;;;;5004742;28;1432;-79
2022/11/01 15:47:53;;;;;;;;;;;;;;;;;;5024072;28;856;-80
2022/11/01 15:50:20;;;;;;;;;;;;;;;;;;5000147;28;1530;-78
2022/11/01 15:52:47;;;;;;;;;;;;;;;;;;5017318;28;929;-79
2022/11/01 15:55:15;;;;;;;;;;;;;;;;;;5019293;28;1431;-80
2022/11/01 15:57:42;;;;;;;;;;;;;;;;;;5023492;28;862;-79
2022/11/01 16:00:16;;;;;;;;;;;;;;;;;;5001826;28;1993;-79
2022/11/01 16:02:45;;;;;;;;;;;;;;;;;;5022225;28;817;-80
2022/11/01 16:05:13;;;;;;;;;;;;;;;;;;5022012;28;1387;-79
2022/11/01 16:07:39;;;;;;;;;;;;;;;;;;5017210;28;808;-79
2022/11/01 16:10:08;;;;;;;;;;;;;;;;;;5017142;28;894;-80
2022/11/01 16:12:36;;;;;;;;;;;;;;;;;;5024109;28;834;-79
2022/11/01 16:15:05;;;;;;;;;;;;;;;;;;5021565;28;1271;-80
2022/11/01 16:17:32;;;;;;;;;;;;;;;;;;5005805;28;969;-81
2022/11/01 16:20:03;;;;;;;;;;;;;;;;;;5002852;28;1996;-80
2022/11/01 16:22:34;;;;;;;;;;;;;;;;;;5024482;28;841;-80
2022/11/01 16:25:05;;;;;;;;;;;;;;;;;;4997711;28;1376;-79
2022/11/01 16:27:32;;;;;;;;;;;;;;;;;;5012654;28;834;-79
2022/11/01 16:30:01;;;;;;;;;;;;;;;;;;5002791;28;989;-78
2022/11/01 16:32:29;;;;;;;;;;;;;;;;;;5023029;28;908;-79
2022/11/01 16:34:56;;;;;;;;;;;;;;;;;;4989785;28;1463;-81
2022/11/01 16:37:25;;;;;;;;;;;;;;;;;;5006313;28;743;-80
2022/11/01 16:39:51;;;;;;;;;;;;;;;;;;5001887;28;1930;-79
2022/11/01 16:42:18;;;;;;;;;;;;;;;;;;5001767;28;973;-79
2022/11/01 16:44:45;;;;;;;;;;;;;;;;;;5000038;28;1301;-79
2022/11/01 16:47:12;;;;;;;;;;;;;;;;;;5008600;28;881;-80
2022/11/01 16:49:38;;;;;;;;;;;;;;;;;;5006383;28;905;-79
2022/11/01 16:52:05;;;;;;;;;;;;;;;;;;5002565;28;945;-78
2022/11/01 16:54:37;;;;;;;;;;;;;;;;;;5006368;28;1254;-79
2022/11/01 16:57:04;;;;;;;;;;;;;;;;;;4983555;28;1030;-79
2022/11/01 16:59:32;;;;;;;;;;;;;;;;;;5003215;28;1934;-80
2022/11/01 17:01:58;;;;;;;;;;;;;;;;;;4999992;28;1545;-79
2022/11/01 17:04:25;;;;;;;;;;;;;;;;;;5021036;28;1367;-80
2022/11/01 17:06:52;;;;;;;;;;;;;;;;;;5003489;28;1141;-80
2022/11/01 17:09:19;;;;;;;;;;;;;;;;;;5009103;28;1077;-79
2022/11/01 17:11:49;;;;;;;;;;;;;;;;;;5003857;28;999;-80
2022/11/01 17:14:16;;;;;;;;;;;;;;;;;;5022863;28;1265;-80
2022/11/01 17:16:43;;;;;;;;;;;;;;;;;;5003889;28;1023;-80
2022/11/01 17:19:11;;;;;;;;;;;;;;;;;;5011493;28;2005;-80
2022/11/01 17:21:38;;;;;;;;;;;;;;;;;;4995019;28;989;-80